Time;durP1;ratioP1;P1;durP2;ratioP2;P2;SDS_P1;SDS_P2;PMS_P1;PMS_P2;Temp;Humidity;BMP_temperature;BMP_pressure;BME280_temperature;BME280_humidity;BME280_pressure;Samples;Min_cycle;Max_cycle;Signal;HPM_P1;HPM_P2
2023/09/01 00:00:43;;;;;;;0.30;0.30;;;;;;;22.13;100.00;101478.41;2070958;28;20629;-65
2023/09/01 00:01:44;;;;;;;0.47;0.30;;;;;;;22.13;100.00;101487.66;2070729;28;20276;-65
2023/09/01 00:02:44;;;;;;;0.20;0.20;;;;;;;22.14;100.00;101480.75;2070879;28;20181;-65
2023/09/01 00:03:44;;;;;;;0.30;0.30;;;;;;;21.99;100.00;101462.28;2070888;28;20190;-65
2023/09/01 00:04:45;;;;;;;0.40;0.30;;;;;;;22.11;100.00;101486.59;2071471;28;20277;-65
2023/09/01 00:05:45;;;;;;;0.20;0.20;;;;;;;22.09;100.00;101481.44;2071229;28;20198;-66
2023/09/01 00:06:46;;;;;;;0.20;0.20;;;;;;;22.08;100.00;101481.91;2070719;28;20208;-65
2023/09/01 00:07:46;;;;;;;0.30;0.30;;;;;;;22.06;100.00;101468.28;2070977;28;20231;-65
2023/09/01 00:08:46;;;;;;;0.47;0.47;;;;;;;22.04;100.00;101479.31;2070425;28;20190;-66
2023/09/01 00:09:50;;;;;;;0.70;0.70;;;;;;;22.01;100.00;101485.16;2070834;28;20205;-66
2023/09/01 00:10:50;;;;;;;0.20;0.20;;;;;;;22.02;100.00;101483.88;2071079;28;20658;-65
2023/09/01 00:11:50;;;;;;;0.10;0.10;;;;;;;22.03;100.00;101486.22;2070467;28;20186;-66
2023/09/01 00:12:51;;;;;;;0.20;0.20;;;;;;;22.04;100.00;101482.13;2071633;28;20186;-65
2023/09/01 00:13:51;;;;;;;0.20;0.20;;;;;;;22.04;100.00;101481.34;2071875;28;20201;-65
2023/09/01 00:14:52;;;;;;;0.20;0.20;;;;;;;21.98;100.00;101483.31;2070920;28;20248;-65
2023/09/01 00:15:53;;;;;;;0.30;0.30;;;;;;;21.75;100.00;101451.16;2071598;28;20220;-65
2023/09/01 00:16:53;;;;;;;0.10;0.10;;;;;;;21.95;100.00;101479.41;2070844;28;20593;-65
2023/09/01 00:17:54;;;;;;;0.20;0.20;;;;;;;21.35;100.00;101383.28;2071503;28;20184;-65
2023/09/01 00:18:54;;;;;;;0.10;0.10;;;;;;;21.89;100.00;101478.56;2071378;28;20206;-65
2023/09/01 00:19:55;;;;;;;0.30;0.30;;;;;;;21.04;100.00;101346.41;2071030;28;20261;-65
2023/09/01 00:21:03;;;;;;;0.27;0.20;;;;;;;21.89;100.00;101475.75;2071554;28;20181;-65
2023/09/01 00:22:04;;;;;;;0.17;0.17;;;;;;;21.92;100.00;101479.63;2070928;28;20174;-65
2023/09/01 00:23:04;;;;;;;0.30;0.30;;;;;;;21.93;100.00;101473.50;2071901;28;20327;-65
2023/09/01 00:24:05;;;;;;;0.20;0.20;;;;;;;21.89;100.00;101478.56;2071527;28;20563;-65
2023/09/01 00:25:06;;;;;;;0.30;0.30;;;;;;;21.55;100.00;101405.16;2070984;28;20276;-65
2023/09/01 00:26:07;;;;;;;0.30;0.30;;;;;;;21.05;100.00;101327.47;2071505;28;20193;-65
2023/09/01 00:27:07;;;;;;;0.30;0.30;;;;;;;21.90;100.00;101466.00;2071603;28;20200;-66
2023/09/01 00:28:07;;;;;;;0.30;0.30;;;;;;;21.90;100.00;101466.00;2070769;28;20287;-65
2023/09/01 00:29:08;;;;;;;0.20;0.20;;;;;;;21.90;100.00;101470.88;2071447;28;20287;-65
2023/09/01 00:30:09;;;;;;;0.10;0.10;;;;;;;21.92;100.00;101468.34;2071546;28;20208;-65
2023/09/01 00:31:10;;;;;;;0.20;0.20;;;;;;;21.92;100.00;101466.31;2072052;28;20216;-65
2023/09/01 00:32:10;;;;;;;0.20;0.13;;;;;;;21.90;100.00;101466.00;2071135;28;20198;-65
2023/09/01 00:33:11;;;;;;;0.10;0.10;;;;;;;21.26;100.00;101366.50;2071241;28;20209;-65
2023/09/01 00:34:11;;;;;;;0.17;0.17;;;;;;;21.90;100.00;101468.81;2070613;28;20194;-65
2023/09/01 00:35:11;;;;;;;0.33;0.33;;;;;;;21.90;100.00;101466.00;2071044;28;20186;-65
2023/09/01 00:36:12;;;;;;;0.40;0.20;;;;;;;21.92;100.00;101465.50;2070641;28;20210;-66
2023/09/01 00:37:12;;;;;;;0.57;0.13;;;;;;;21.91;100.00;101461.91;2071157;28;20243;-66
2023/09/01 00:38:13;;;;;;;0.17;0.17;;;;;;;21.90;100.00;101460.34;2070482;28;20178;-66
2023/09/01 00:39:13;;;;;;;0.10;0.10;;;;;;;21.88;100.00;101465.72;2072017;28;20189;-65
2023/09/01 00:40:14;;;;;;;0.10;0.10;;;;;;;21.87;100.00;101469.81;2071210;28;20194;-65
2023/09/01 00:41:14;;;;;;;0.10;0.10;;;;;;;21.85;100.00;101465.94;2071470;28;20206;-66
2023/09/01 00:42:15;;;;;;;0.10;0.10;;;;;;;21.79;100.00;101451.72;2070985;28;20249;-66
2023/09/01 00:43:16;;;;;;;0.10;0.10;;;;;;;21.79;100.00;101454.56;2070719;28;20205;-65
2023/09/01 00:44:16;;;;;;;0.30;0.30;;;;;;;21.80;100.00;101475.84;2070907;28;20196;-65
2023/09/01 00:45:17;;;;;;;0.40;0.40;;;;;;;21.83;100.00;101471.28;2071185;28;20200;-65
2023/09/01 00:46:17;;;;;;;0.20;0.20;;;;;;;21.81;100.00;101473.81;2071509;28;20184;-65
2023/09/01 00:47:18;;;;;;;0.10;0.10;;;;;;;21.64;100.00;101447.38;2072030;28;20189;-65
2023/09/01 00:48:19;;;;;;;0.10;0.10;;;;;;;21.76;100.00;101469.66;2071527;28;20706;-65
2023/09/01 00:49:19;;;;;;;0.10;0.10;;;;;;;21.59;100.00;101448.06;2072904;28;20247;-65
2023/09/01 00:50:20;;;;;;;0.20;0.20;;;;;;;21.71;100.00;101476.00;2072978;28;20197;-65
2023/09/01 00:51:20;;;;;;;0.20;0.20;;;;;;;21.63;100.00;101471.97;2072597;28;20213;-65
2023/09/01 00:52:21;;;;;;;0.30;0.30;;;;;;;21.62;100.00;101478.88;2073015;28;20224;-65
2023/09/01 00:53:21;;;;;;;0.20;0.20;;;;;;;21.64;100.00;101475.56;2073146;28;20675;-65
2023/09/01 00:54:22;;;;;;;0.10;0.10;;;;;;;21.64;100.00;101481.22;2072907;28;20173;-65
2023/09/01 00:55:23;;;;;;;0.20;0.20;;;;;;;21.64;100.00;101479.16;2073213;28;20709;-65
2023/09/01 00:56:23;;;;;;;0.10;0.10;;;;;;;21.62;100.00;101484.53;2072656;28;20739;-65
2023/09/01 00:57:24;;;;;;;0.27;0.20;;;;;;;21.61;100.00;101476.53;2072230;28;20679;-65
2023/09/01 00:58:27;;;;;;;0.50;0.50;;;;;;;21.58;100.00;101480.31;2071763;28;20200;-65
2023/09/01 00:59:28;;;;;;;0.20;0.20;;;;;;;21.07;100.00;101401.00;2073078;28;20553;-65
2023/09/01 01:00:31;;;;;;;0.30;0.30;;;;;;;21.62;100.00;101481.69;2072128;28;20200;-65
2023/09/01 01:01:33;;;;;;;0.27;0.27;;;;;;;21.61;100.00;101485.00;2072106;28;20210;-65
2023/09/01 01:02:34;;;;;;;0.20;0.20;;;;;;;21.61;100.00;101485.78;2072809;28;20197;-65
2023/09/01 01:03:34;;;;;;;0.20;0.20;;;;;;;21.52;100.00;101485.88;2072561;28;20640;-65
2023/09/01 01:04:35;;;;;;;0.20;0.20;;;;;;;21.52;100.00;101485.09;2073387;28;20221;-65
2023/09/01 01:05:58;;;;;;;0.00;0.00;;;;;;;21.47;100.00;101480.94;2072771;28;20194;-65
2023/09/01 01:07:06;;;;;;;0.20;0.20;;;;;;;21.54;100.00;101480.53;2072796;28;20192;-65
2023/09/01 01:08:18;;;;;;;0.20;0.20;;;;;;;21.54;100.00;101469.25;2072829;28;20277;-65
2023/09/01 01:09:24;;;;;;;0.20;0.20;;;;;;;21.51;100.00;101469.44;2072394;28;20182;-65
2023/09/01 01:10:43;;;;;;;0.30;0.30;;;;;;;21.52;100.00;101476.63;2072817;28;20185;-65
2023/09/01 01:11:55;;;;;;;0.30;0.27;;;;;;;21.53;100.00;101473.34;2071943;28;20178;-65
2023/09/01 01:13:15;;;;;;;0.20;0.20;;;;;;;21.47;100.00;101486.56;2071927;28;20236;-65
2023/09/01 01:14:22;;;;;;;0.20;0.20;;;;;;;21.52;100.00;101474.59;2072849;28;20239;-65
2023/09/01 01:15:25;;;;;;;0.30;0.17;;;;;;;21.59;100.00;101476.25;2071510;28;20237;-65
2023/09/01 01:16:28;;;;;;;0.20;0.20;;;;;;;21.59;100.00;101471.38;2072447;28;20255;-65
2023/09/01 01:17:29;;;;;;;0.10;0.10;;;;;;;21.41;100.00;101454.69;2072803;28;20181;-65
2023/09/01 01:18:35;;;;;;;0.20;0.20;;;;;;;21.44;100.00;101456.50;2072264;28;20186;-65
2023/09/01 01:19:43;;;;;;;0.40;0.40;;;;;;;21.59;100.00;101482.66;2072921;28;20190;-65
2023/09/01 01:20:48;;;;;;;0.67;0.20;;;;;;;21.59;100.00;101481.91;2073057;28;20189;-65
2023/09/01 01:21:52;;;;;;;0.10;0.10;;;;;;;21.60;100.00;101487.03;2072938;28;20186;-65
2023/09/01 01:23:17;;;;;;;0.20;0.20;;;;;;;21.61;100.00;101482.19;2072413;28;20200;-66
2023/09/01 01:24:17;;;;;;;0.13;0.13;;;;;;;21.57;100.00;101488.03;2072341;28;20212;-66
2023/09/01 01:25:20;;;;;;;0.20;0.20;;;;;;;21.54;100.00;101485.41;2072692;28;20424;-65
2023/09/01 01:26:23;;;;;;;0.17;0.17;;;;;;;21.19;100.00;101428.16;2072624;28;20198;-65
2023/09/01 01:27:23;;;;;;;0.20;0.20;;;;;;;21.62;100.00;101486.56;2072745;28;20186;-65
2023/09/01 01:28:24;;;;;;;0.10;0.10;;;;;;;21.61;100.00;101476.53;2072076;28;20989;-65
2023/09/01 01:29:25;;;;;;;0.20;0.20;;;;;;;21.69;100.00;101489.03;2072764;28;20239;-65
2023/09/01 01:30:26;;;;;;;0.17;0.17;;;;;;;21.70;100.00;101484.94;2071945;28;20293;-65
2023/09/01 01:31:27;;;;;;;0.20;0.20;;;;;;;21.34;100.00;101429.69;2072693;28;20416;-65
2023/09/01 01:32:28;;;;;;;0.30;0.17;;;;;;;21.72;100.00;101488.81;2073043;28;20656;-65
2023/09/01 01:33:47;;;;;;;0.20;0.17;;;;;;;21.75;100.00;101481.41;2071786;28;20718;-65
2023/09/01 01:35:00;;;;;;;0.30;0.20;;;;;;;21.15;100.00;101397.34;2072601;28;20535;-65
2023/09/01 01:36:30;;;;;;;0.20;0.20;;;;;;;21.78;100.00;101488.88;2071109;28;20486;-65
2023/09/01 01:37:57;;;;;;;0.30;0.20;;;;;;;21.75;100.00;101485.00;2071307;28;20186;-65
2023/09/01 01:39:04;;;;;;;0.10;0.10;;;;;;;21.70;100.00;101488.50;2071995;28;20454;-65
2023/09/01 01:40:07;;;;;;;0.30;0.30;;;;;;;21.65;100.00;101485.59;2071386;28;21016;-65
2023/09/01 01:41:09;;;;;;;0.03;0.03;;;;;;;21.03;100.00;101386.34;2071938;28;20243;-66
2023/09/01 01:42:13;;;;;;;0.10;0.10;;;;;;;21.71;100.00;101492.91;2071213;28;20197;-65
2023/09/01 01:43:17;;;;;;;0.20;0.20;;;;;;;21.72;100.00;101488.81;2071302;28;20193;-65
2023/09/01 01:44:23;;;;;;;1.40;1.30;;;;;;;21.73;100.00;101492.41;2072189;28;20201;-65
2023/09/01 01:45:24;;;;;;;0.17;0.17;;;;;;;21.71;100.00;101484.44;2072399;28;20455;-65
2023/09/01 01:46:27;;;;;;;0.33;0.33;;;;;;;21.72;100.00;101496.50;2072444;28;20443;-66
2023/09/01 01:47:27;;;;;;;0.10;0.10;;;;;;;21.73;100.00;101492.41;2071842;28;20216;-65
2023/09/01 01:48:27;;;;;;;0.20;0.20;;;;;;;21.72;100.00;101488.03;2071671;28;20492;-65
2023/09/01 01:49:28;;;;;;;0.30;0.20;;;;;;;21.72;100.00;101494.47;2072431;28;20642;-65
2023/09/01 01:50:28;;;;;;;0.20;0.20;;;;;;;21.70;100.00;101487.75;2078959;28;20197;-65
2023/09/01 01:51:29;;;;;;;0.13;0.13;;;;;;;21.64;100.00;101498.16;2079840;28;20277;-65
2023/09/01 01:52:29;;;;;;;0.37;0.30;;;;;;;21.61;100.00;101493.47;2072163;28;20205;-65
2023/09/01 01:53:29;;;;;;;0.30;0.20;;;;;;;21.57;100.00;101487.22;2071949;28;20272;-65
2023/09/01 01:54:31;;;;;;;0.10;0.10;;;;;;;21.43;100.00;101474.69;2072945;28;20219;-65
2023/09/01 01:55:33;;;;;;;0.10;0.10;;;;;;;21.55;100.00;101482.06;2072453;28;20194;-65
2023/09/01 01:56:33;;;;;;;0.20;0.20;;;;;;;21.53;100.00;101493.06;2071592;28;20186;-65
2023/09/01 01:57:34;;;;;;;0.20;0.20;;;;;;;21.49;100.00;101489.66;2072916;28;20428;-65
2023/09/01 01:58:34;;;;;;;0.10;0.10;;;;;;;21.46;100.00;101490.66;2071479;28;20651;-65
2023/09/01 01:59:35;;;;;;;0.10;0.10;;;;;;;21.48;100.00;101488.13;2072451;28;20229;-65
2023/09/01 02:00:35;;;;;;;0.63;0.27;;;;;;;21.44;100.00;101493.16;2070846;28;20688;-65
2023/09/01 02:01:35;;;;;;;0.10;0.10;;;;;;;21.43;100.00;101485.19;2071340;28;21480;-65
2023/09/01 02:02:37;;;;;;;0.03;0.03;;;;;;;21.42;100.00;101498.53;2071427;28;20205;-65
2023/09/01 02:03:37;;;;;;;0.20;0.20;;;;;;;21.47;100.00;101491.41;2070247;28;20202;-66
2023/09/01 02:04:38;;;;;;;0.20;0.20;;;;;;;21.45;100.00;101493.97;2071838;28;20275;-65
2023/09/01 02:05:38;;;;;;;0.20;0.20;;;;;;;21.44;100.00;101492.41;2072605;28;20225;-66
2023/09/01 02:06:39;;;;;;;0.13;0.13;;;;;;;21.43;100.00;101493.66;2072399;28;20248;-65
2023/09/01 02:07:39;;;;;;;0.33;0.20;;;;;;;21.40;100.00;101503.09;2072351;28;20239;-65
2023/09/01 02:08:39;;;;;;;0.20;0.10;;;;;;;21.38;100.00;101497.16;2072556;28;20201;-65
2023/09/01 02:09:40;;;;;;;0.10;0.10;;;;;;;21.41;100.00;101496.97;2072475;28;20247;-65
2023/09/01 02:10:40;;;;;;;0.30;0.30;;;;;;;21.33;100.00;101486.59;2072319;28;20662;-65
2023/09/01 02:11:40;;;;;;;0.10;0.10;;;;;;;21.39;100.00;101502.31;2071377;28;20276;-65
2023/09/01 02:12:41;;;;;;;0.90;0.20;;;;;;;21.33;100.00;101518.34;2071902;28;20197;-65
2023/09/01 02:13:42;;;;;;;0.27;0.27;;;;;;;21.35;100.00;101498.13;2072686;28;20268;-65
2023/09/01 02:14:42;;;;;;;0.10;0.10;;;;;;;21.35;100.00;101504.53;2071828;28;20407;-65
2023/09/01 02:15:53;;;;;;;0.10;0.10;;;;;;;21.31;100.00;101501.16;2071423;28;20675;-65
2023/09/01 02:16:53;;;;;;;0.10;0.10;;;;;;;21.32;100.00;101501.91;2071125;28;20681;-65
2023/09/01 02:17:54;;;;;;;0.30;0.30;;;;;;;21.28;100.00;101513.38;2072303;28;20202;-65
2023/09/01 02:18:56;;;;;;;0.20;0.20;;;;;;;21.15;100.00;101483.94;2071263;28;20295;-65
2023/09/01 02:19:56;;;;;;;0.60;0.60;;;;;;;21.29;100.00;101503.66;2071252;28;20190;-65
2023/09/01 02:20:57;;;;;;;0.10;0.10;;;;;;;21.32;100.00;101502.72;2070956;28;20178;-65
2023/09/01 02:21:57;;;;;;;0.20;0.20;;;;;;;21.32;100.00;101511.16;2071977;28;20801;-65
2023/09/01 02:22:58;;;;;;;0.33;0.33;;;;;;;21.32;100.00;101505.53;2072922;28;20189;-65
2023/09/01 02:23:59;;;;;;;0.20;0.20;;;;;;;21.29;100.00;101508.53;2072041;28;20186;-65
2023/09/01 02:24:59;;;;;;;0.10;0.10;;;;;;;21.29;100.00;101506.47;2071997;28;20197;-66
2023/09/01 02:26:00;;;;;;;0.10;0.10;;;;;;;21.26;100.00;101501.03;2072262;28;20197;-65
2023/09/01 02:27:00;;;;;;;0.10;0.10;;;;;;;21.25;100.00;101502.31;2071734;28;20213;-65
2023/09/01 02:28:04;;;;;;;0.20;0.20;;;;;;;21.22;100.00;101506.88;2072347;28;20213;-65
2023/09/01 02:29:05;;;;;;;0.10;0.10;;;;;;;21.22;100.00;101501.25;2071068;28;20652;-65
2023/09/01 02:30:06;;;;;;;0.30;0.30;;;;;;;20.46;100.00;101397.03;2071418;28;20557;-65
2023/09/01 02:31:09;;;;;;;0.00;0.00;;;;;;;21.14;100.00;101496.47;2071320;28;20580;-65
2023/09/01 02:32:10;;;;;;;0.37;0.37;;;;;;;21.13;100.00;101509.78;2072478;28;20197;-66
2023/09/01 02:33:10;;;;;;;0.20;0.20;;;;;;;21.03;100.00;101507.53;2072117;28;20440;-65
2023/09/01 02:34:11;;;;;;;0.00;0.00;;;;;;;21.03;100.00;101508.28;2071332;28;20252;-65
2023/09/01 02:35:11;;;;;;;0.10;0.10;;;;;;;21.07;100.00;101496.84;2071116;28;20734;-65
2023/09/01 02:36:29;;;;;;;0.10;0.10;;;;;;;21.04;100.00;101509.84;2070851;28;20671;-65
2023/09/01 02:37:29;;;;;;;0.20;0.20;;;;;;;21.02;100.00;101503.94;2072013;28;20659;-65
2023/09/01 02:38:30;;;;;;;0.37;0.37;;;;;;;20.92;100.00;101476.31;2071942;28;20575;-65
2023/09/01 02:39:30;;;;;;;0.20;0.20;;;;;;;21.06;100.00;101503.72;2071875;28;20272;-65
2023/09/01 02:40:31;;;;;;;0.20;0.20;;;;;;;21.08;100.00;101504.06;2072112;28;20220;-65
2023/09/01 02:41:31;;;;;;;0.10;0.10;;;;;;;21.00;100.00;101500.03;2071851;28;20492;-65
2023/09/01 02:42:31;;;;;;;1.00;0.40;;;;;;;20.98;100.00;101503.34;2072386;28;20252;-65
2023/09/01 02:43:32;;;;;;;0.17;0.17;;;;;;;21.00;100.00;101497.22;2071215;28;20277;-65
2023/09/01 02:44:32;;;;;;;0.30;0.30;;;;;;;20.93;100.00;101501.19;2071393;28;20190;-65
2023/09/01 02:45:32;;;;;;;0.40;0.27;;;;;;;20.92;100.00;101498.84;2071676;28;20255;-65
2023/09/01 02:46:33;;;;;;;0.20;0.20;;;;;;;20.98;100.00;101494.88;2071810;28;20263;-65
2023/09/01 02:47:34;;;;;;;0.17;0.17;;;;;;;20.97;100.00;101501.00;2070990;28;20285;-65
2023/09/01 02:48:35;;;;;;;0.30;0.30;;;;;;;20.99;100.00;101492.84;2072026;28;20198;-65
2023/09/01 02:49:35;;;;;;;0.40;0.40;;;;;;;20.99;100.00;101499.25;2071686;28;20519;-65
2023/09/01 02:50:36;;;;;;;0.20;0.20;;;;;;;20.95;100.00;101500.72;2071944;28;20186;-65
2023/09/01 02:51:37;;;;;;;0.27;0.27;;;;;;;20.92;100.00;101499.63;2071564;28;20194;-66
2023/09/01 02:52:37;;;;;;;0.10;0.10;;;;;;;20.95;100.00;101504.31;2071060;28;20531;-65
2023/09/01 02:53:38;;;;;;;0.37;0.20;;;;;;;20.97;100.00;101495.34;2070263;28;20198;-67
2023/09/01 02:54:38;;;;;;;0.17;0.17;;;;;;;20.97;100.00;101498.19;2070820;28;20317;-65
2023/09/01 02:55:38;;;;;;;0.20;0.20;;;;;;;20.98;100.00;101489.25;2071692;28;20276;-65
2023/09/01 02:56:39;;;;;;;0.27;0.27;;;;;;;20.94;100.00;101499.16;2071435;28;20177;-65
2023/09/01 02:57:39;;;;;;;0.20;0.20;;;;;;;20.48;100.00;101428.31;2071454;28;20272;-66
2023/09/01 02:58:40;;;;;;;0.30;0.30;;;;;;;20.95;100.00;101498.69;2071485;28;20185;-65
2023/09/01 02:59:40;;;;;;;0.13;0.13;;;;;;;20.88;100.00;101501.81;2072191;28;20360;-66
2023/09/01 03:00:40;;;;;;;0.10;0.10;;;;;;;20.90;100.00;101507.81;2071404;28;20185;-66
2023/09/01 03:01:41;;;;;;;0.60;0.60;;;;;;;20.86;100.00;101501.53;2071618;28;20189;-65
2023/09/01 03:02:42;;;;;;;0.30;0.30;;;;;;;20.71;100.00;101480.22;2071581;28;20189;-65
2023/09/01 03:03:43;;;;;;;0.13;0.13;;;;;;;20.81;100.00;101499.38;2071389;28;20189;-65
2023/09/01 03:04:43;;;;;;;0.20;0.20;;;;;;;20.77;100.00;101495.97;2072219;28;20540;-65
2023/09/01 03:05:43;;;;;;;0.10;0.10;;;;;;;20.08;100.00;101390.59;2071926;28;20221;-65
2023/09/01 03:06:44;;;;;;;0.20;0.20;;;;;;;20.81;100.00;101507.84;2071777;28;20189;-65
2023/09/01 03:07:44;;;;;;;0.10;0.10;;;;;;;20.80;100.00;101505.50;2072431;28;20239;-65
2023/09/01 03:08:45;;;;;;;0.20;0.20;;;;;;;20.82;100.00;101508.63;2072324;28;20182;-65
2023/09/01 03:09:45;;;;;;;0.10;0.10;;;;;;;20.82;100.00;101500.94;2072046;28;20185;-65
2023/09/01 03:10:46;;;;;;;0.50;0.30;;;;;;;20.82;100.00;101494.53;2071775;28;20204;-65
2023/09/01 03:11:46;;;;;;;0.60;0.10;;;;;;;20.82;100.00;101500.19;2071591;28;20190;-66
2023/09/01 03:12:48;;;;;;;0.20;0.20;;;;;;;20.83;100.00;101498.91;2072021;28;20220;-65
2023/09/01 03:13:48;;;;;;;0.20;0.20;;;;;;;20.87;100.00;101497.44;2071244;28;20619;-65
2023/09/01 03:14:48;;;;;;;0.93;0.83;;;;;;;20.92;100.00;101499.63;2071492;28;20573;-65
2023/09/01 03:15:52;;;;;;;0.83;0.77;;;;;;;20.30;100.00;101414.38;2072554;28;20564;-64
2023/09/01 03:16:53;;;;;;;0.20;0.20;;;;;;;20.87;100.00;101500.28;2070944;28;20216;-65
2023/09/01 03:17:53;;;;;;;1.00;0.83;;;;;;;20.84;100.00;101504.06;2071086;28;20448;-65
2023/09/01 03:18:59;;;;;;;0.40;0.13;;;;;;;20.87;100.00;101507.97;2072199;28;20205;-65
2023/09/01 03:20:00;;;;;;;0.37;0.37;;;;;;;20.88;100.00;101506.69;2071572;28;20641;-65
2023/09/01 03:21:10;;;;;;;2.13;0.57;;;;;;;20.90;100.00;101499.34;2072226;28;20198;-65
2023/09/01 03:22:11;;;;;;;0.57;0.57;;;;;;;20.86;100.00;101507.19;2071700;28;20596;-65
2023/09/01 03:23:11;;;;;;;0.17;0.17;;;;;;;20.86;100.00;101506.38;2071669;28;20205;-64
2023/09/01 03:24:12;;;;;;;0.10;0.10;;;;;;;20.87;100.00;101511.53;2071652;28;20579;-64
2023/09/01 03:25:12;;;;;;;0.50;0.50;;;;;;;20.36;100.00;101434.19;2071751;28;20744;-64
2023/09/01 03:26:12;;;;;;;0.30;0.30;;;;;;;20.84;100.00;101518.16;2072157;28;20276;-64
2023/09/01 03:27:14;;;;;;;0.20;0.20;;;;;;;20.82;100.00;101515.03;2071676;28;20276;-65
2023/09/01 03:28:14;;;;;;;0.33;0.30;;;;;;;20.89;100.00;101522.34;2071247;28;20217;-65
2023/09/01 03:29:14;;;;;;;0.30;0.30;;;;;;;20.89;100.00;101516.69;2071033;28;20437;-65
2023/09/01 03:32:15;;;;;;;0.20;0.20;;;;;;;20.81;100.00;101513.47;2068568;28;20260;-65
2023/09/01 03:33:15;;;;;;;0.37;0.20;;;;;;;20.81;100.00;101512.69;2069599;28;20432;-66
2023/09/01 03:34:16;;;;;;;0.10;0.10;;;;;;;20.78;100.00;101511.59;2071315;28;20460;-66
2023/09/01 03:35:16;;;;;;;0.10;0.10;;;;;;;20.78;100.00;101513.66;2070768;28;20671;-65
2023/09/01 03:36:16;;;;;;;0.10;0.10;;;;;;;20.81;100.00;101512.69;2071294;28;20201;-65
2023/09/01 03:37:17;;;;;;;0.10;0.10;;;;;;;20.77;100.00;101512.88;2071120;28;20281;-65
2023/09/01 03:38:17;;;;;;;0.37;0.33;;;;;;;20.77;100.00;101521.31;2071562;28;20262;-65
2023/09/01 03:39:18;;;;;;;0.10;0.10;;;;;;;20.76;100.00;101521.78;2072360;28;20193;-65
2023/09/01 03:40:18;;;;;;;0.13;0.13;;;;;;;20.76;100.00;101518.97;2071476;28;20194;-65
2023/09/01 03:41:19;;;;;;;0.10;0.10;;;;;;;20.75;100.00;101520.25;2071900;28;20198;-64
2023/09/01 03:42:19;;;;;;;0.20;0.20;;;;;;;20.74;100.00;101518.69;2070526;28;20194;-65
2023/09/01 03:43:20;;;;;;;0.20;0.20;;;;;;;20.73;100.00;101517.91;2071169;28;20216;-64
2023/09/01 03:44:20;;;;;;;0.57;0.57;;;;;;;20.71;100.00;101522.47;2071687;28;20336;-65
2023/09/01 03:45:20;;;;;;;0.20;0.20;;;;;;;20.67;100.00;101521.88;2071358;28;20240;-65
2023/09/01 03:46:21;;;;;;;0.10;0.10;;;;;;;20.64;100.00;101517.19;2071325;28;20696;-65
2023/09/01 03:47:21;;;;;;;0.20;0.10;;;;;;;20.63;100.00;101513.59;2071633;28;20201;-65
2023/09/01 03:48:22;;;;;;;0.30;0.30;;;;;;;20.60;100.00;101522.22;2071568;28;20221;-65
2023/09/01 03:49:22;;;;;;;0.10;0.10;;;;;;;20.60;100.00;101520.19;2071704;28;20366;-64
2023/09/01 03:50:23;;;;;;;0.20;0.20;;;;;;;20.59;100.00;101526.31;2071749;28;20221;-64
2023/09/01 03:51:23;;;;;;;0.30;0.30;;;;;;;20.63;100.00;101522.03;2071690;28;20708;-65
2023/09/01 03:52:24;;;;;;;0.13;0.13;;;;;;;20.55;100.00;101511.63;2071276;28;20664;-65
2023/09/01 03:53:24;;;;;;;0.20;0.20;;;;;;;20.58;100.00;101525.53;2071128;28;20177;-65
2023/09/01 03:54:25;;;;;;;0.20;0.13;;;;;;;20.55;100.00;101534.16;2071287;28;20236;-64
2023/09/01 03:55:25;;;;;;;0.23;0.23;;;;;;;20.58;100.00;101528.34;2071177;28;20196;-65
2023/09/01 03:56:26;;;;;;;0.47;0.20;;;;;;;20.65;100.00;101535.66;2072166;28;20627;-65
2023/09/01 03:57:26;;;;;;;0.10;0.10;;;;;;;20.65;100.00;101533.63;2071453;28;20586;-65
2023/09/01 03:58:26;;;;;;;0.20;0.20;;;;;;;20.67;100.00;101535.97;2071425;28;20190;-65
2023/09/01 03:59:27;;;;;;;0.33;0.20;;;;;;;20.71;100.00;101536.53;2071340;28;20272;-65
2023/09/01 04:00:27;;;;;;;0.20;0.20;;;;;;;20.78;100.00;101536.19;2071649;28;20193;-65
2023/09/01 04:01:28;;;;;;;0.57;0.30;;;;;;;20.49;100.00;101494.63;2070006;28;20213;-64
2023/09/01 04:02:28;;;;;;;0.43;0.43;;;;;;;20.74;100.00;101536.38;2070411;28;20193;-65
2023/09/01 04:03:29;;;;;;;0.40;0.30;;;;;;;20.77;100.00;101534.66;2071870;28;20255;-65
2023/09/01 04:04:29;;;;;;;0.10;0.10;;;;;;;20.79;100.00;101538.53;2070723;28;20208;-65
2023/09/01 04:05:29;;;;;;;0.10;0.10;;;;;;;20.83;100.00;101535.53;2070460;28;20189;-65
2023/09/01 04:06:30;;;;;;;0.50;0.30;;;;;;;20.83;100.00;101541.94;2070333;28;20571;-65
2023/09/01 04:07:30;;;;;;;0.33;0.27;;;;;;;20.83;100.00;101539.13;2069655;28;20674;-65
2023/09/01 04:08:31;;;;;;;0.20;0.20;;;;;;;20.83;100.00;101541.94;2069505;28;20690;-68
2023/09/01 04:09:32;;;;;;;0.10;0.10;;;;;;;21.71;100.00;101545.72;2071326;28;20221;-64
2023/09/01 04:10:32;;;;;;;0.10;0.10;;;;;;;22.61;100.00;101547.41;2069681;28;20441;-63
2023/09/01 04:11:33;;;;;;;0.17;0.10;;;;;;;23.12;100.00;101522.06;2069141;28;20276;-63
2023/09/01 04:12:34;;;;;;;0.30;0.30;;;;;;;23.87;100.00;101556.53;2069466;28;20239;-63
2023/09/01 04:13:35;;;;;;;0.30;0.30;;;;;;;24.32;100.00;101545.06;2069052;28;20204;-63
2023/09/01 04:14:35;;;;;;;0.20;0.20;;;;;;;24.68;100.00;101544.28;2069609;28;20190;-61
2023/09/01 04:15:36;;;;;;;0.20;0.20;;;;;;;24.82;100.00;101542.53;2070220;28;20192;-62
2023/09/01 04:16:38;;;;;;;0.40;0.10;;;;;;;25.02;100.00;101548.78;2070226;28;20197;-61
2023/09/01 04:17:39;;;;;;;0.30;0.30;;;;;;;25.09;100.00;101544.69;2070092;28;20201;-61
2023/09/01 04:18:39;;;;;;;0.37;0.37;;;;;;;25.15;100.00;101537.75;2072149;28;20213;-63
2023/09/01 04:19:39;;;;;;;0.10;0.10;;;;;;;25.08;100.00;101504.19;2069380;28;20259;-62
2023/09/01 04:20:46;;;;;;;0.10;0.10;;;;;;;25.15;100.00;101503.72;2072173;28;20220;-62
2023/09/01 04:21:47;;;;;;;0.43;0.43;;;;;;;25.48;100.00;101537.09;2069110;28;20220;-66
2023/09/01 04:22:47;;;;;;;0.10;0.10;;;;;;;25.63;100.00;101549.72;2071689;28;20197;-63
2023/09/01 04:23:48;;;;;;;0.10;0.10;;;;;;;25.77;100.00;101545.09;2072325;28;20186;-63
2023/09/01 04:24:49;;;;;;;0.20;0.20;;;;;;;25.77;100.00;101551.56;2069800;28;20193;-60
2023/09/01 04:25:49;;;;;;;0.20;0.10;;;;;;;25.79;100.00;101548.22;2073247;28;20277;-62
2023/09/01 04:26:50;;;;;;;0.23;0.23;;;;;;;25.90;100.00;101553.88;2073331;28;20231;-62
2023/09/01 04:27:50;;;;;;;0.17;0.17;;;;;;;25.96;100.00;101546.94;2072599;28;20181;-63
2023/09/01 04:28:51;;;;;;;0.20;0.20;;;;;;;25.70;100.00;101506.63;2072339;28;20192;-60
2023/09/01 04:29:51;;;;;;;0.23;0.20;;;;;;;25.84;100.00;101541.75;2072818;28;20185;-62
2023/09/01 04:30:51;;;;;;;0.20;0.20;;;;;;;25.69;100.00;101549.75;2063283;28;20266;-61
2023/09/01 04:31:52;;;;;;;1.00;0.30;;;;;;;25.66;100.00;101550.75;2067158;28;20220;-63
2023/09/01 04:32:52;;;;;;;0.10;0.10;;;;;;;25.58;100.00;101549.75;2068906;28;20189;-62
2023/09/01 04:33:53;;;;;;;0.20;0.20;;;;;;;25.42;100.00;101541.94;2069131;28;20696;-62
2023/09/01 04:34:53;;;;;;;0.10;0.10;;;;;;;25.28;100.00;101552.25;2072106;28;20276;-60
2023/09/01 04:36:03;;;;;;;0.10;0.10;;;;;;;25.14;100.00;101541.88;2071022;28;20735;-65
2023/09/01 04:37:03;;;;;;;0.17;0.17;;;;;;;25.19;100.00;101543.94;2067676;28;20206;-60
2023/09/01 04:38:04;;;;;;;0.10;0.10;;;;;;;25.18;100.00;101548.06;2073086;28;20185;-61
2023/09/01 04:39:05;;;;;;;0.50;0.43;;;;;;;24.81;100.00;101453.88;2073279;28;20181;-61
2023/09/01 04:40:07;;;;;;;0.37;0.37;;;;;;;25.54;100.00;101540.69;2072079;28;20527;-59
2023/09/01 04:41:07;;;;;;;0.10;0.10;;;;;;;25.55;100.00;101545.09;2072416;28;20185;-60
2023/09/01 04:42:08;;;;;;;0.37;0.27;;;;;;;25.54;100.00;101543.53;2071670;28;20189;-60
2023/09/01 04:43:08;;;;;;;0.00;0.00;;;;;;;25.23;100.00;101489.81;2072277;28;20251;-61
2023/09/01 04:44:09;;;;;;;0.10;0.10;;;;;;;25.60;100.00;101541.47;2071019;28;20271;-61
2023/09/01 04:45:09;;;;;;;0.10;0.10;;;;;;;25.47;100.00;101536.28;2069893;28;20280;-61
2023/09/01 04:46:10;;;;;;;0.20;0.10;;;;;;;25.10;100.00;101526.38;2070779;28;20201;-61